aviador You're here:

SCNT Decoded Metar

TENIENTE GALLARD in CHILE
Report Time2017-12-11 22:00:00
UTC Time2017-12-11 22:55:47
Flight Rules vfr VFR
Wind230° at 10 Gusting to 20 kt
W.Decomp.*RWY 28: 4.4 kt HW 9 kt LCW
W.Rank230° ranks 7
Current wind is below 230° avg. (12.8)
Visibility9999 m
Phenomena:N/A
Clouds:Broken 040 Hf
Expected CloudBase > 3,600 ft AGL from Temp-Dew spread
Ceiling4,000 ft
Temp12°C (ISA -3)
Dew Point03°C (54% RH)
AAT6.9°C
QNH1000 hPa
Density Alt463 ft
Elevation220 ft
Report Wrong Elevation
Raw Report
METAR SCNT 112200Z 23010G20KT 160V320 9999 BKN040 12/03 Q1000=

Extra information for SCNT:More info

Metar Taf Metar & Taf Last 4 Metars F.Rules Stats Wind Profile Meteogram Temp Stats Airport Information Weather charts Add Link Nearby VenuesMetar ALERT Operation Metar Decoded Social comments